sensor_id;sensor_type;location;lat;lon;timestamp;P1;durP1;ratioP1;P2;durP2;ratioP2
47539;SDS011;33280;52.152;21.052;2023-07-24T06:04:48;4.60;;;2.60;;
47539;SDS011;33280;52.152;21.052;2023-07-24T06:07:19;12.03;;;3.63;;
47539;SDS011;33280;52.152;21.052;2023-07-24T06:09:53;4.00;;;2.73;;
47539;SDS011;33280;52.152;21.052;2023-07-24T06:12:27;5.73;;;3.10;;
47539;SDS011;33280;52.152;21.052;2023-07-24T06:14:58;6.70;;;3.33;;
47539;SDS011;33280;52.152;21.052;2023-07-24T06:17:25;8.23;;;3.57;;
47539;SDS011;33280;52.152;21.052;2023-07-24T06:20:05;5.63;;;3.10;;
47539;SDS011;33280;52.152;21.052;2023-07-24T06:22:42;6.63;;;3.07;;
47539;SDS011;33280;52.152;21.052;2023-07-24T06:25:20;5.77;;;2.83;;
47539;SDS011;33280;52.152;21.052;2023-07-24T06:27:54;8.27;;;3.30;;
47539;SDS011;33280;52.152;21.052;2023-07-24T06:30:29;3.90;;;2.80;;
47539;SDS011;33280;52.152;21.052;2023-07-24T06:33:05;5.25;;;2.83;;
47539;SDS011;33280;52.152;21.052;2023-07-24T06:35:34;5.88;;;2.90;;
47539;SDS011;33280;52.152;21.052;2023-07-24T06:38:10;5.03;;;3.00;;
47539;SDS011;33280;52.152;21.052;2023-07-24T06:40:44;8.60;;;2.60;;
47539;SDS011;33280;52.152;21.052;2023-07-24T06:43:18;5.80;;;2.97;;
47539;SDS011;33280;52.152;21.052;2023-07-24T06:45:48;7.80;;;2.60;;
47539;SDS011;33280;52.152;21.052;2023-07-24T06:52:15;4.03;;;2.73;;
47539;SDS011;33280;52.152;21.052;2023-07-24T06:55:33;6.37;;;2.80;;
47539;SDS011;33280;52.152;21.052;2023-07-24T06:58:13;8.10;;;2.90;;
47539;SDS011;33280;52.152;21.052;2023-07-24T07:01:06;6.10;;;2.63;;
47539;SDS011;33280;52.152;21.052;2023-07-24T07:04:22;6.37;;;2.87;;
47539;SDS011;33280;52.152;21.052;2023-07-24T07:07:02;4.83;;;3.00;;
47539;SDS011;33280;52.152;21.052;2023-07-24T07:09:44;5.60;;;2.70;;
47539;SDS011;33280;52.152;21.052;2023-07-24T07:12:17;5.57;;;2.90;;
47539;SDS011;33280;52.152;21.052;2023-07-24T07:14:50;5.43;;;2.85;;
47539;SDS011;33280;52.152;21.052;2023-07-24T07:17:26;4.47;;;2.90;;
47539;SDS011;33280;52.152;21.052;2023-07-24T07:20:28;3.92;;;2.50;;
47539;SDS011;33280;52.152;21.052;2023-07-24T07:23:00;4.67;;;2.47;;
47539;SDS011;33280;52.152;21.052;2023-07-24T07:25:38;5.90;;;2.80;;
47539;SDS011;33280;52.152;21.052;2023-07-24T07:29:01;4.67;;;2.30;;
47539;SDS011;33280;52.152;21.052;2023-07-24T07:32:15;6.13;;;2.80;;
47539;SDS011;33280;52.152;21.052;2023-07-24T07:35:08;4.78;;;2.65;;
47539;SDS011;33280;52.152;21.052;2023-07-24T07:38:03;3.78;;;2.60;;
47539;SDS011;33280;52.152;21.052;2023-07-24T07:41:16;5.82;;;2.78;;
47539;SDS011;33280;52.152;21.052;2023-07-24T07:43:54;4.43;;;2.47;;
47539;SDS011;33280;52.152;21.052;2023-07-24T07:46:38;5.23;;;2.43;;
47539;SDS011;33280;52.152;21.052;2023-07-24T07:49:21;4.05;;;2.47;;
47539;SDS011;33280;52.152;21.052;2023-07-24T07:51:50;3.60;;;2.20;;
47539;SDS011;33280;52.152;21.052;2023-07-24T07:54:28;5.03;;;2.80;;
47539;SDS011;33280;52.152;21.052;2023-07-24T07:57:05;8.30;;;2.92;;
47539;SDS011;33280;52.152;21.052;2023-07-24T08:00:10;4.95;;;2.90;;
47539;SDS011;33280;52.152;21.052;2023-07-24T08:03:05;5.55;;;2.50;;
47539;SDS011;33280;52.152;21.052;2023-07-24T08:05:36;7.72;;;2.60;;
47539;SDS011;33280;52.152;21.052;2023-07-24T08:08:21;4.10;;;2.47;;
47539;SDS011;33280;52.152;21.052;2023-07-24T08:11:03;3.65;;;2.33;;
47539;SDS011;33280;52.152;21.052;2023-07-24T08:13:34;4.40;;;2.40;;
47539;SDS011;33280;52.152;21.052;2023-07-24T08:16:02;4.50;;;2.45;;
47539;SDS011;33280;52.152;21.052;2023-07-24T08:18:32;3.97;;;2.60;;
47539;SDS011;33280;52.152;21.052;2023-07-24T08:21:02;5.93;;;2.60;;
47539;SDS011;33280;52.152;21.052;2023-07-24T08:23:34;6.85;;;2.97;;
47539;SDS011;33280;52.152;21.052;2023-07-24T08:26:02;4.22;;;2.60;;
47539;SDS011;33280;52.152;21.052;2023-07-24T08:28:32;3.35;;;2.50;;
47539;SDS011;33280;52.152;21.052;2023-07-24T08:31:02;4.20;;;2.30;;
47539;SDS011;33280;52.152;21.052;2023-07-24T08:33:41;4.75;;;2.50;;
47539;SDS011;33280;52.152;21.052;2023-07-24T08:36:16;2.97;;;2.13;;
47539;SDS011;33280;52.152;21.052;2023-07-24T08:38:47;5.40;;;2.22;;
47539;SDS011;33280;52.152;21.052;2023-07-24T08:41:17;2.70;;;2.00;;
47539;SDS011;33280;52.152;21.052;2023-07-24T08:43:45;4.10;;;2.42;;
47539;SDS011;33280;52.152;21.052;2023-07-24T08:46:19;3.67;;;2.40;;
47539;SDS011;33280;52.152;21.052;2023-07-24T08:48:47;4.28;;;2.35;;
47539;SDS011;33280;52.152;21.052;2023-07-24T08:51:15;4.18;;;2.50;;
47539;SDS011;33280;52.152;21.052;2023-07-24T08:53:58;3.88;;;2.20;;
47539;SDS011;33280;52.152;21.052;2023-07-24T08:56:36;3.65;;;2.20;;
47539;SDS011;33280;52.152;21.052;2023-07-24T08:59:07;3.95;;;2.40;;
47539;SDS011;33280;52.152;21.052;2023-07-24T09:01:37;5.63;;;2.20;;
47539;SDS011;33280;52.152;21.052;2023-07-24T09:04:04;3.78;;;2.35;;
47539;SDS011;33280;52.152;21.052;2023-07-24T09:07:09;4.70;;;2.22;;
47539;SDS011;33280;52.152;21.052;2023-07-24T09:09:52;5.05;;;2.28;;
47539;SDS011;33280;52.152;21.052;2023-07-24T09:12:21;3.35;;;2.40;;
47539;SDS011;33280;52.152;21.052;2023-07-24T09:22:32;2.90;;;1.95;;
47539;SDS011;33280;52.152;21.052;2023-07-24T09:25:42;2.90;;;2.20;;
47539;SDS011;33280;52.152;21.052;2023-07-24T09:28:56;5.30;;;2.17;;
47539;SDS011;33280;52.152;21.052;2023-07-24T09:31:48;4.57;;;2.10;;
47539;SDS011;33280;52.152;21.052;2023-07-24T09:34:43;5.18;;;2.47;;
47539;SDS011;33280;52.152;21.052;2023-07-24T09:37:26;3.58;;;2.38;;
47539;SDS011;33280;52.152;21.052;2023-07-24T09:39:59;4.22;;;2.30;;
47539;SDS011;33280;52.152;21.052;2023-07-24T09:42:41;4.13;;;2.35;;
47539;SDS011;33280;52.152;21.052;2023-07-24T09:45:32;3.33;;;2.30;;
47539;SDS011;33280;52.152;21.052;2023-07-24T09:48:01;5.00;;;2.40;;
47539;SDS011;33280;52.152;21.052;2023-07-24T09:50:35;3.55;;;2.30;;
47539;SDS011;33280;52.152;21.052;2023-07-24T09:56:36;4.60;;;2.65;;
47539;SDS011;33280;52.152;21.052;2023-07-24T09:59:33;4.35;;;2.70;;
47539;SDS011;33280;52.152;21.052;2023-07-24T10:02:39;4.13;;;2.58;;
47539;SDS011;33280;52.152;21.052;2023-07-24T10:05:36;3.75;;;2.40;;
47539;SDS011;33280;52.152;21.052;2023-07-24T10:08:56;4.35;;;2.55;;
47539;SDS011;33280;52.152;21.052;2023-07-24T10:12:18;4.85;;;2.70;;
47539;SDS011;33280;52.152;21.052;2023-07-24T10:15:22;4.68;;;2.50;;
47539;SDS011;33280;52.152;21.052;2023-07-24T10:18:03;3.78;;;2.50;;
47539;SDS011;33280;52.152;21.052;2023-07-24T10:20:34;5.80;;;3.05;;
47539;SDS011;33280;52.152;21.052;2023-07-24T10:23:26;4.95;;;2.75;;
47539;SDS011;33280;52.152;21.052;2023-07-24T10:26:33;3.97;;;2.50;;
47539;SDS011;33280;52.152;21.052;2023-07-24T10:29:37;6.15;;;3.17;;
47539;SDS011;33280;52.152;21.052;2023-07-24T10:32:19;6.93;;;3.17;;
47539;SDS011;33280;52.152;21.052;2023-07-24T10:35:06;5.15;;;3.40;;
47539;SDS011;33280;52.152;21.052;2023-07-24T10:37:59;6.95;;;3.05;;
47539;SDS011;33280;52.152;21.052;2023-07-24T10:40:41;5.07;;;3.15;;
47539;SDS011;33280;52.152;21.052;2023-07-24T10:43:24;4.40;;;3.17;;
47539;SDS011;33280;52.152;21.052;2023-07-24T10:46:46;5.07;;;3.30;;
47539;SDS011;33280;52.152;21.052;2023-07-24T10:49:54;7.43;;;3.30;;
47539;SDS011;33280;52.152;21.052;2023-07-24T10:52:31;4.90;;;2.80;;
47539;SDS011;33280;52.152;21.052;2023-07-24T10:55:02;5.15;;;3.13;;
47539;SDS011;33280;52.152;21.052;2023-07-24T10:57:53;7.00;;;3.60;;
47539;SDS011;33280;52.152;21.052;2023-07-24T11:00:26;5.70;;;3.50;;
47539;SDS011;33280;52.152;21.052;2023-07-24T11:03:05;5.65;;;3.20;;
47539;SDS011;33280;52.152;21.052;2023-07-24T11:06:05;4.22;;;3.20;;
47539;SDS011;33280;52.152;21.052;2023-07-24T11:09:16;6.05;;;3.28;;
47539;SDS011;33280;52.152;21.052;2023-07-24T11:11:59;5.22;;;3.20;;
47539;SDS011;33280;52.152;21.052;2023-07-24T11:14:53;6.43;;;3.05;;
47539;SDS011;33280;52.152;21.052;2023-07-24T11:17:46;6.32;;;3.10;;
47539;SDS011;33280;52.152;21.052;2023-07-24T11:20:44;5.40;;;3.00;;
47539;SDS011;33280;52.152;21.052;2023-07-24T11:23:45;5.55;;;3.17;;
47539;SDS011;33280;52.152;21.052;2023-07-24T11:27:55;4.47;;;3.10;;
47539;SDS011;33280;52.152;21.052;2023-07-24T11:31:35;3.83;;;2.88;;
47539;SDS011;33280;52.152;21.052;2023-07-24T11:34:44;4.50;;;2.80;;
47539;SDS011;33280;52.152;21.052;2023-07-24T11:37:23;6.28;;;3.20;;
47539;SDS011;33280;52.152;21.052;2023-07-24T11:40:29;5.80;;;3.10;;
47539;SDS011;33280;52.152;21.052;2023-07-24T11:43:30;4.53;;;3.33;;
47539;SDS011;33280;52.152;21.052;2023-07-24T11:46:27;4.43;;;3.05;;
47539;SDS011;33280;52.152;21.052;2023-07-24T11:49:17;5.60;;;3.00;;
47539;SDS011;33280;52.152;21.052;2023-07-24T12:11:24;4.72;;;2.95;;
47539;SDS011;33280;52.152;21.052;2023-07-24T12:35:02;5.07;;;3.80;;
47539;SDS011;33280;52.152;21.052;2023-07-24T12:38:34;4.68;;;3.00;;
47539;SDS011;33280;52.152;21.052;2023-07-24T12:41:38;4.85;;;2.75;;
47539;SDS011;33280;52.152;21.052;2023-07-24T12:45:45;5.38;;;3.28;;
47539;SDS011;33280;52.152;21.052;2023-07-24T12:52:58;5.20;;;3.20;;
47539;SDS011;33280;52.152;21.052;2023-07-24T13:00:37;3.50;;;2.90;;
47539;SDS011;33280;52.152;21.052;2023-07-24T13:42:55;5.90;;;3.40;;
47539;SDS011;33280;52.152;21.052;2023-07-24T13:50:35;6.32;;;3.35;;
47539;SDS011;33280;52.152;21.052;2023-07-24T13:53:15;6.47;;;3.28;;
47539;SDS011;33280;52.152;21.052;2023-07-24T13:56:43;7.95;;;3.90;;
47539;SDS011;33280;52.152;21.052;2023-07-24T13:59:23;5.68;;;3.33;;
47539;SDS011;33280;52.152;21.052;2023-07-24T14:02:20;4.35;;;3.45;;
47539;SDS011;33280;52.152;21.052;2023-07-24T14:13:58;7.25;;;3.00;;
47539;SDS011;33280;52.152;21.052;2023-07-24T14:17:05;3.95;;;3.30;;
47539;SDS011;33280;52.152;21.052;2023-07-24T14:19:40;3.88;;;2.67;;
47539;SDS011;33280;52.152;21.052;2023-07-24T14:22:37;5.35;;;3.20;;
47539;SDS011;33280;52.152;21.052;2023-07-24T15:13:23;6.80;;;3.63;;
47539;SDS011;33280;52.152;21.052;2023-07-24T15:21:10;6.22;;;4.00;;
47539;SDS011;33280;52.152;21.052;2023-07-24T15:24:10;8.10;;;4.20;;
47539;SDS011;33280;52.152;21.052;2023-07-24T15:27:41;8.60;;;3.92;;
47539;SDS011;33280;52.152;21.052;2023-07-24T15:30:42;7.90;;;3.97;;
47539;SDS011;33280;52.152;21.052;2023-07-24T15:34:00;6.10;;;3.92;;
47539;SDS011;33280;52.152;21.052;2023-07-24T15:53:25;6.82;;;4.28;;
47539;SDS011;33280;52.152;21.052;2023-07-24T15:56:05;5.47;;;4.00;;
47539;SDS011;33280;52.152;21.052;2023-07-24T15:59:12;7.28;;;4.07;;
47539;SDS011;33280;52.152;21.052;2023-07-24T16:02:09;7.05;;;4.05;;
47539;SDS011;33280;52.152;21.052;2023-07-24T16:08:47;5.75;;;4.18;;
47539;SDS011;33280;52.152;21.052;2023-07-24T16:15:47;6.32;;;4.25;;
47539;SDS011;33280;52.152;21.052;2023-07-24T16:22:44;5.60;;;3.90;;
47539;SDS011;33280;52.152;21.052;2023-07-24T16:26:01;7.10;;;4.22;;
47539;SDS011;33280;52.152;21.052;2023-07-24T17:27:21;13.55;;;5.75;;
47539;SDS011;33280;52.152;21.052;2023-07-24T17:31:18;9.38;;;5.55;;
47539;SDS011;33280;52.152;21.052;2023-07-24T17:45:31;10.85;;;5.80;;
47539;SDS011;33280;52.152;21.052;2023-07-24T17:47:58;10.07;;;6.03;;
47539;SDS011;33280;52.152;21.052;2023-07-24T17:50:30;9.02;;;5.38;;
47539;SDS011;33280;52.152;21.052;2023-07-24T17:55:48;10.07;;;5.50;;
47539;SDS011;33280;52.152;21.052;2023-07-24T18:26:53;12.95;;;6.38;;
47539;SDS011;33280;52.152;21.052;2023-07-24T19:03:24;13.90;;;6.68;;
47539;SDS011;33280;52.152;21.052;2023-07-24T19:05:55;14.23;;;6.45;;
47539;SDS011;33280;52.152;21.052;2023-07-24T19:09:29;10.60;;;5.90;;
47539;SDS011;33280;52.152;21.052;2023-07-24T19:12:04;10.52;;;6.15;;
47539;SDS011;33280;52.152;21.052;2023-07-24T19:14:48;9.82;;;5.72;;
47539;SDS011;33280;52.152;21.052;2023-07-24T19:17:41;10.77;;;5.57;;
47539;SDS011;33280;52.152;21.052;2023-07-24T19:20:27;11.60;;;6.05;;
47539;SDS011;33280;52.152;21.052;2023-07-24T19:23:00;10.43;;;5.70;;
47539;SDS011;33280;52.152;21.052;2023-07-24T19:25:32;13.57;;;6.22;;
47539;SDS011;33280;52.152;21.052;2023-07-24T19:28:10;11.93;;;6.20;;
47539;SDS011;33280;52.152;21.052;2023-07-24T19:30:50;9.55;;;6.05;;
47539;SDS011;33280;52.152;21.052;2023-07-24T19:33:24;12.18;;;6.10;;
47539;SDS011;33280;52.152;21.052;2023-07-24T19:35:59;11.40;;;5.70;;
47539;SDS011;33280;52.152;21.052;2023-07-24T19:38:32;8.65;;;5.38;;
47539;SDS011;33280;52.152;21.052;2023-07-24T19:41:06;9.18;;;5.38;;
47539;SDS011;33280;52.152;21.052;2023-07-24T19:43:41;8.75;;;4.95;;
47539;SDS011;33280;52.152;21.052;2023-07-24T19:46:14;8.05;;;4.90;;
47539;SDS011;33280;52.152;21.052;2023-07-24T19:48:41;8.75;;;5.20;;
47539;SDS011;33280;52.152;21.052;2023-07-24T19:51:09;11.20;;;5.22;;
47539;SDS011;33280;52.152;21.052;2023-07-24T19:53:36;7.80;;;4.88;;
47539;SDS011;33280;52.152;21.052;2023-07-24T19:56:10;7.38;;;4.93;;
47539;SDS011;33280;52.152;21.052;2023-07-24T19:58:54;9.05;;;4.97;;
47539;SDS011;33280;52.152;21.052;2023-07-24T20:01:27;9.23;;;5.30;;
47539;SDS011;33280;52.152;21.052;2023-07-24T20:03:58;9.90;;;5.25;;
47539;SDS011;33280;52.152;21.052;2023-07-24T20:06:29;8.55;;;5.40;;
47539;SDS011;33280;52.152;21.052;2023-07-24T20:08:59;8.77;;;5.03;;
47539;SDS011;33280;52.152;21.052;2023-07-24T20:11:29;8.27;;;5.20;;
47539;SDS011;33280;52.152;21.052;2023-07-24T20:14:03;8.85;;;5.35;;
47539;SDS011;33280;52.152;21.052;2023-07-24T20:16:31;8.02;;;5.35;;
47539;SDS011;33280;52.152;21.052;2023-07-24T20:18:58;10.52;;;5.43;;
47539;SDS011;33280;52.152;21.052;2023-07-24T20:21:26;9.50;;;5.70;;
47539;SDS011;33280;52.152;21.052;2023-07-24T21:43:23;12.60;;;6.40;;
47539;SDS011;33280;52.152;21.052;2023-07-24T21:45:52;10.50;;;6.10;;
47539;SDS011;33280;52.152;21.052;2023-07-24T21:48:20;10.67;;;5.83;;
47539;SDS011;33280;52.152;21.052;2023-07-24T21:50:48;10.30;;;6.00;;
47539;SDS011;33280;52.152;21.052;2023-07-24T21:53:22;9.37;;;5.43;;
47539;SDS011;33280;52.152;21.052;2023-07-24T21:56:19;8.93;;;5.73;;
47539;SDS011;33280;52.152;21.052;2023-07-24T21:59:12;11.07;;;5.90;;
47539;SDS011;33280;52.152;21.052;2023-07-24T22:01:56;10.13;;;6.07;;
47539;SDS011;33280;52.152;21.052;2023-07-24T22:04:47;10.73;;;6.27;;
47539;SDS011;33280;52.152;21.052;2023-07-24T22:07:30;11.67;;;6.37;;
47539;SDS011;33280;52.152;21.052;2023-07-24T22:10:02;11.77;;;6.40;;
47539;SDS011;33280;52.152;21.052;2023-07-24T22:12:53;12.53;;;5.97;;
47539;SDS011;33280;52.152;21.052;2023-07-24T22:15:23;9.30;;;6.03;;
47539;SDS011;33280;52.152;21.052;2023-07-24T22:18:05;11.63;;;6.17;;
47539;SDS011;33280;52.152;21.052;2023-07-24T22:24:38;9.10;;;5.67;;
47539;SDS011;33280;52.152;21.052;2023-07-24T22:28:26;11.13;;;6.40;;
47539;SDS011;33280;52.152;21.052;2023-07-24T22:38:44;11.13;;;6.07;;
47539;SDS011;33280;52.152;21.052;2023-07-24T22:49:38;10.57;;;6.23;;
